Главная страница
METAR-TAF:

METAR-TAF

Аэропорты :

Кастамону, Турция

широта: 41-19-01N, долгота: 33-47-46E, высота над уровнем моря: 1073 м

Текущие метеонаблюдения

Эта сводка был подготовлена 3 часа и 19 минут назад, в 12:50 UTC
Ветер 4 Узел от северо-восточный
Температура 8°C
Влажность 76%
Давление 1016 hPa
Видимость 10 км и более
Нет облачности ниже 1500 м, и нет кучево-дождевой облачности

METAR: LTAL 151250Z 04004KT CAVOK 08/04 Q1016

Время: 19:09 (16:09 UTC)

Прогноз

Эта сводка был подготовлена 2 часа и 29 минут назад, в 13:40 UTC
Прогноз действительный с 15-го 15 UTC до 15-го 24 UTC
Ветер 2 Узел переменных направлений
Видимость 10 км и более
Нет облачности ниже 1500 м, и нет кучево-дождевой облачности

TAF: LTAL 151340Z 1515/1524 VRB02KT CAVOK

Метеонаблюдения и прогнозы для более 4000 аэропортов (сводки METAR и TAF).

Имеющиеся станции представлены на карте желтыми и красными точками.

Чтобы увидеть название станции, наведите на нее мышь.

Затем щелкните, чтобы увидеть метеонаблюдения и метеопрогнозы.

Управление картой: чтобы увеличить масштаб, щелкните зеленые кнопки с черным крестиком; чтобы уменьшить масштаб, щелкните зеленую кнопку с тире; для просмотра соседних карт щелкайте зеленые стрелки.


METAR-TAF: